AIZ71 LGRP-LLBG
Flight info
| Callsign | AIZ71 |
|---|---|
| Flight time | N/A |
| Altitude | 34000 |
| Route | NILAS UL609 ALKIS DCT MAROS DCT APLON L609 ZUKKO |
| Aircraft | A21N/M-SDE2E3FGHIRWXY/LB1 |
Departure
| Time | 2026-04-27 15:24 |
|---|---|
| Airport | Rhodes International Airport "Diagoras" (LGRP) |
Arrival
| Time | N/A |
|---|---|
| Airport | Ben Gurion International Airport (LLBG) |
| Time | Latitude | Longitude | Altitude | Speed | Heading |
|---|---|---|---|---|---|
| 2026-04-27 15:07 | 36.40357 | 28.09088 | 31 ft | 0 kts | 160° |
| 2026-04-27 15:18 | 36.40367 | 28.09084 | 31 ft | 4 kts | 160° |
| 2026-04-27 15:18 | 36.40388 | 28.09074 | 31 ft | 4 kts | 155° |
| 2026-04-27 15:18 | 36.40407 | 28.09056 | 31 ft | 4 kts | 107° |
| 2026-04-27 15:18 | 36.40406 | 28.09025 | 31 ft | 4 kts | 72° |
| 2026-04-27 15:19 | 36.40410 | 28.09038 | 31 ft | 4 kts | 71° |
| 2026-04-27 15:19 | 36.40412 | 28.09046 | 31 ft | 0 kts | 70° |
| 2026-04-27 15:21 | 36.40412 | 28.09047 | 31 ft | 0 kts | 70° |
| 2026-04-27 15:21 | 36.40468 | 28.09239 | 31 ft | 37 kts | 70° |
| 2026-04-27 15:22 | 36.40607 | 28.09480 | 31 ft | 33 kts | 69° |
| 2026-04-27 15:22 | 36.40688 | 28.09754 | 31 ft | 35 kts | 70° |
| 2026-04-27 15:22 | 36.40800 | 28.10139 | 31 ft | 51 kts | 70° |
| 2026-04-27 15:22 | 36.40897 | 28.10414 | 31 ft | 14 kts | 29° |
| 2026-04-27 15:23 | 36.40997 | 28.10365 | 30 ft | 26 kts | 305° |
| 2026-04-27 15:23 | 36.40986 | 28.10143 | 30 ft | 45 kts | 250° |
| 2026-04-27 15:23 | 36.40776 | 28.09427 | 34 ft | 133 kts | 250° |
| 2026-04-27 15:23 | 36.40412 | 28.08171 | 524 ft | 163 kts | 250° |
| 2026-04-27 15:24 | 36.40127 | 28.06761 | 1365 ft | 172 kts | 265° |
| 2026-04-27 15:24 | 36.40003 | 28.05240 | 2363 ft | 183 kts | 266° |
| 2026-04-27 15:24 | 36.39842 | 28.03575 | 3133 ft | 210 kts | 265° |
| 2026-04-27 15:24 | 36.39651 | 28.01666 | 3815 ft | 235 kts | 265° |
| 2026-04-27 15:25 | 36.39455 | 27.99600 | 4627 ft | 255 kts | 264° |
| 2026-04-27 15:25 | 36.39257 | 27.97347 | 5620 ft | 268 kts | 265° |
| 2026-04-27 15:25 | 36.39064 | 27.95007 | 6833 ft | 275 kts | 265° |
| 2026-04-27 15:25 | 36.38875 | 27.92631 | 8142 ft | 279 kts | 264° |
| 2026-04-27 15:26 | 36.38689 | 27.90220 | 9543 ft | 283 kts | 264° |
| 2026-04-27 15:26 | 36.38492 | 27.87753 | 10715 ft | 295 kts | 263° |
| 2026-04-27 15:26 | 36.37795 | 27.85257 | 11356 ft | 325 kts | 238° |
| 2026-04-27 15:26 | 36.36117 | 27.83258 | 12209 ft | 346 kts | 215° |
| 2026-04-27 15:27 | 36.33944 | 27.81869 | 13297 ft | 357 kts | 205° |
| 2026-04-27 15:27 | 36.31571 | 27.80855 | 14335 ft | 366 kts | 195° |
| 2026-04-27 15:27 | 36.29011 | 27.80498 | 15322 ft | 377 kts | 179° |
| 2026-04-27 15:27 | 36.26419 | 27.81202 | 16327 ft | 387 kts | 157° |
| 2026-04-27 15:28 | 36.24168 | 27.83054 | 17349 ft | 394 kts | 135° |
| 2026-04-27 15:28 | 36.22513 | 27.85771 | 18338 ft | 399 kts | 118° |
| 2026-04-27 15:28 | 36.21335 | 27.88902 | 19201 ft | 404 kts | 110° |
| 2026-04-27 15:28 | 36.20400 | 27.92204 | 20041 ft | 409 kts | 106° |
| 2026-04-27 15:29 | 36.19533 | 27.95583 | 20858 ft | 415 kts | 107° |
| 2026-04-27 15:29 | 36.18391 | 27.98890 | 21680 ft | 422 kts | 115° |
| 2026-04-27 15:29 | 36.17032 | 28.02151 | 22520 ft | 428 kts | 117° |
| 2026-04-27 15:29 | 36.15570 | 28.05394 | 23314 ft | 434 kts | 119° |
| 2026-04-27 15:30 | 36.14038 | 28.08636 | 23993 ft | 440 kts | 120° |
| 2026-04-27 15:30 | 36.12462 | 28.11902 | 24632 ft | 444 kts | 120° |
| 2026-04-27 15:30 | 36.10884 | 28.15150 | 25278 ft | 447 kts | 120° |
| 2026-04-27 15:30 | 36.09276 | 28.18463 | 25928 ft | 451 kts | 120° |
| 2026-04-27 15:31 | 36.07662 | 28.21801 | 26549 ft | 454 kts | 120° |
| 2026-04-27 15:31 | 36.06041 | 28.25164 | 27155 ft | 457 kts | 120° |
| 2026-04-27 15:31 | 36.04407 | 28.28561 | 27729 ft | 461 kts | 120° |
| 2026-04-27 15:31 | 36.02761 | 28.31987 | 28305 ft | 464 kts | 120° |
| 2026-04-27 15:32 | 36.01107 | 28.35427 | 28850 ft | 468 kts | 120° |
| 2026-04-27 15:32 | 35.99435 | 28.38901 | 29381 ft | 471 kts | 120° |
| 2026-04-27 15:32 | 35.97774 | 28.42352 | 29875 ft | 475 kts | 121° |
| 2026-04-27 15:32 | 35.96079 | 28.45866 | 30334 ft | 477 kts | 121° |
| 2026-04-27 15:33 | 35.94382 | 28.49382 | 30883 ft | 476 kts | 121° |
| 2026-04-27 15:33 | 35.92690 | 28.52882 | 31461 ft | 475 kts | 121° |
| 2026-04-27 15:33 | 35.90992 | 28.56392 | 31994 ft | 475 kts | 121° |
| 2026-04-27 15:33 | 35.89297 | 28.59890 | 32536 ft | 474 kts | 121° |
| 2026-04-27 15:34 | 35.87599 | 28.63394 | 32889 ft | 476 kts | 121° |
| 2026-04-27 15:34 | 35.85903 | 28.66888 | 32972 ft | 474 kts | 121° |
| 2026-04-27 15:34 | 35.82511 | 28.73867 | 32956 ft | 474 kts | 121° |
| 2026-04-27 15:35 | 35.79093 | 28.80883 | 32967 ft | 484 kts | 121° |
| 2026-04-27 15:35 | 35.75621 | 28.87995 | 32951 ft | 489 kts | 121° |
| 2026-04-27 15:36 | 35.72104 | 28.95187 | 32953 ft | 490 kts | 121° |